createdAt,value
2022-08-24T00:01:45.485Z,4.95
2022-08-24T00:05:47.289Z,4.22
2022-08-24T00:09:49.586Z,7.18
2022-08-24T00:13:53.369Z,3.88
2022-08-24T00:17:55.149Z,5.13
2022-08-24T00:21:57.313Z,4.10
2022-08-24T00:25:59.053Z,3.80
2022-08-24T00:30:01.191Z,7.13
2022-08-24T00:34:03.057Z,6.80
2022-08-24T00:38:05.137Z,6.57
2022-08-24T00:42:07.057Z,6.20
2022-08-24T00:46:18.597Z,5.50
2022-08-24T00:50:26.691Z,4.85
2022-08-24T00:54:31.923Z,5.53
2022-08-24T00:58:41.285Z,6.25
2022-08-24T01:02:48.321Z,6.53
2022-08-24T01:06:50.192Z,4.18
2022-08-24T01:11:12.616Z,3.63
2022-08-24T01:15:16.256Z,4.20
2022-08-24T01:19:31.098Z,3.85
2022-08-24T01:23:39.241Z,3.70
2022-08-24T01:27:42.258Z,5.75
2022-08-24T01:31:44.442Z,4.35
2022-08-24T01:35:47.481Z,4.40
2022-08-24T01:39:51.981Z,6.18
2022-08-24T01:43:53.890Z,5.93
2022-08-24T01:47:55.591Z,6.88
2022-08-24T01:51:57.863Z,4.70
2022-08-24T01:55:59.715Z,6.43
2022-08-24T02:00:02.050Z,6.65
2022-08-24T02:04:05.597Z,5.60
2022-08-24T02:08:08.178Z,5.45
2022-08-24T02:12:10.069Z,7.95
2022-08-24T02:16:11.979Z,5.10
2022-08-24T02:20:13.769Z,6.40
2022-08-24T02:24:15.717Z,6.40
2022-08-24T02:28:18.398Z,5.00
2022-08-24T02:32:20.523Z,7.15
2022-08-24T02:36:25.376Z,6.43
2022-08-24T02:40:28.361Z,4.28
2022-08-24T02:44:30.137Z,5.40
2022-08-24T02:48:31.923Z,4.45
2022-08-24T02:52:35.845Z,5.47
2022-08-24T02:56:37.579Z,4.50
2022-08-24T03:00:45.089Z,6.43
2022-08-24T03:04:49.469Z,5.38
2022-08-24T03:08:56.224Z,6.27
2022-08-24T03:13:01.376Z,5.00
2022-08-24T03:17:03.748Z,5.57
2022-08-24T03:21:05.787Z,5.43
2022-08-24T03:25:09.333Z,6.00
2022-08-24T03:29:11.133Z,4.90
2022-08-24T03:33:13.443Z,6.07
2022-08-24T03:37:16.318Z,6.13
2022-08-24T03:41:18.068Z,5.93
2022-08-24T03:45:21.473Z,5.03
2022-08-24T03:49:23.644Z,9.07
2022-08-24T03:53:25.394Z,4.97
2022-08-24T03:57:27.133Z,5.57
2022-08-24T04:01:28.985Z,6.57
2022-08-24T04:05:34.919Z,5.53
2022-08-24T04:09:36.958Z,6.30
2022-08-24T04:13:39.034Z,8.65
2022-08-24T04:17:40.755Z,5.38
2022-08-24T04:21:44.187Z,5.88
2022-08-24T04:25:48.373Z,10.37
2022-08-24T04:29:50.089Z,6.50
2022-08-24T04:33:53.962Z,5.32
2022-08-24T04:37:55.987Z,9.27
2022-08-24T04:41:59.961Z,4.40
2022-08-24T04:46:09.012Z,5.13
2022-08-24T04:50:10.747Z,4.30
2022-08-24T04:54:12.520Z,4.93
2022-08-24T04:58:15.891Z,5.07
2022-08-24T05:02:18.242Z,4.95
2022-08-24T05:06:21.764Z,6.60
2022-08-24T05:10:23.578Z,6.70
2022-08-24T05:14:28.851Z,6.50
2022-08-24T05:18:32.837Z,8.83
2022-08-24T05:22:34.803Z,7.03
2022-08-24T05:26:37.965Z,6.80
2022-08-24T05:30:42.689Z,7.40
2022-08-24T05:34:44.705Z,8.32
2022-08-24T05:38:47.926Z,6.55
2022-08-24T05:42:50.361Z,7.75
2022-08-24T05:46:52.544Z,6.15
2022-08-24T05:50:56.389Z,4.82
2022-08-24T05:54:59.312Z,7.78
2022-08-24T05:59:01.559Z,7.90
2022-08-24T06:03:03.918Z,11.18
2022-08-24T06:07:10.236Z,12.18
2022-08-24T06:11:19.485Z,11.20
2022-08-24T06:15:22.042Z,9.98
2022-08-24T06:19:24.638Z,15.43
2022-08-24T06:23:26.403Z,6.75
2022-08-24T06:27:28.788Z,9.77
2022-08-24T06:31:39.399Z,8.95
2022-08-24T06:35:46.656Z,6.38
2022-08-24T06:39:48.921Z,7.53
2022-08-24T06:43:56.975Z,14.68
2022-08-24T06:47:58.698Z,5.25
2022-08-24T06:52:00.572Z,10.48
2022-08-24T06:56:02.442Z,9.85
2022-08-24T07:00:05.417Z,15.20
2022-08-24T07:04:07.126Z,8.90
2022-08-24T07:08:08.881Z,9.02
2022-08-24T07:12:10.598Z,8.00
2022-08-24T07:16:12.613Z,5.70
2022-08-24T07:20:14.348Z,6.15
2022-08-24T07:24:16.088Z,8.07
2022-08-24T07:28:17.974Z,7.47
2022-08-24T07:32:33.705Z,12.32
2022-08-24T07:36:38.078Z,7.90
2022-08-24T07:41:09.430Z,9.35
2022-08-24T07:45:10.109Z,10.07
2022-08-24T07:49:31.637Z,8.63
2022-08-24T07:53:52.487Z,7.10
2022-08-24T07:57:55.224Z,7.25
2022-08-24T08:01:57.719Z,10.98
2022-08-24T08:06:02.102Z,6.88
2022-08-24T08:10:04.377Z,6.78
2022-08-24T08:14:06.131Z,10.13
2022-08-24T08:18:08.292Z,9.70
2022-08-24T08:22:29.074Z,7.88
2022-08-24T08:26:30.811Z,6.72
2022-08-24T08:30:33.237Z,6.70
2022-08-24T08:34:36.009Z,7.78
2022-08-24T08:38:40.591Z,9.05
2022-08-24T08:42:47.926Z,7.20
2022-08-24T08:47:20.053Z,7.75
2022-08-24T08:51:21.747Z,6.85
2022-08-24T08:55:41.713Z,6.35
2022-08-24T08:59:54.156Z,6.13
2022-08-24T09:04:25.527Z,5.68
2022-08-24T09:09:02.697Z,6.30
2022-08-24T09:13:31.897Z,5.80
2022-08-24T09:17:59.598Z,6.88
2022-08-24T09:22:19.796Z,8.73
2022-08-24T09:26:29.047Z,4.38
2022-08-24T09:31:01.328Z,3.67
2022-08-24T09:35:26.441Z,6.03
2022-08-24T09:39:48.780Z,5.55
2022-08-24T09:44:09.227Z,4.53
2022-08-24T09:48:44.884Z,5.05
2022-08-24T09:52:55.820Z,3.88
2022-08-24T09:57:20.159Z,7.20
2022-08-24T10:01:38.019Z,5.63
2022-08-24T10:05:58.788Z,4.40
2022-08-24T10:10:28.721Z,4.90
2022-08-24T10:14:45.410Z,3.20
2022-08-24T10:19:06.792Z,3.75
2022-08-24T10:23:52.118Z,4.32
2022-08-24T10:28:12.529Z,4.07
2022-08-24T10:32:19.437Z,5.68
2022-08-24T10:36:41.250Z,5.47
2022-08-24T10:41:14.378Z,3.10
2022-08-24T10:45:53.549Z,4.18
2022-08-24T10:50:18.717Z,3.25
2022-08-24T10:54:21.177Z,5.03
2022-08-24T10:58:45.362Z,4.25
2022-08-24T11:02:48.908Z,3.58
2022-08-24T11:07:29.668Z,5.43
2022-08-24T11:11:40.792Z,3.95
2022-08-24T11:16:08.677Z,3.30
2022-08-24T11:20:31.247Z,3.53
2022-08-24T11:24:45.981Z,3.85
2022-08-24T11:28:53.669Z,5.97
2022-08-24T11:33:05.005Z,3.85
2022-08-24T11:37:15.013Z,3.63
2022-08-24T11:41:42.090Z,3.67
2022-08-24T11:45:59.033Z,3.40
2022-08-24T11:50:33.296Z,3.72
2022-08-24T11:54:48.702Z,4.20
2022-08-24T11:59:10.648Z,3.25
2022-08-24T12:03:29.518Z,2.45
2022-08-24T12:07:57.750Z,3.83
2022-08-24T12:12:37.220Z,2.85
2022-08-24T12:16:51.604Z,3.05
2022-08-24T12:20:54.450Z,3.17
2022-08-24T12:24:59.602Z,2.78
2022-08-24T12:29:24.504Z,2.33
2022-08-24T12:33:32.118Z,2.53
2022-08-24T12:38:08.981Z,2.50
2022-08-24T12:42:19.578Z,2.45
2022-08-24T12:46:24.025Z,2.40
2022-08-24T12:50:33.894Z,3.75
2022-08-24T12:54:47.702Z,2.05
2022-08-24T12:59:04.357Z,5.80
2022-08-24T13:03:23.573Z,2.60
2022-08-24T13:07:25.282Z,2.88
2022-08-24T13:11:28.472Z,4.70
2022-08-24T13:15:30.179Z,4.78
2022-08-24T13:19:38.774Z,4.63
2022-08-24T13:23:40.469Z,3.47
2022-08-24T13:27:42.174Z,2.75
2022-08-24T13:31:53.998Z,5.85
2022-08-24T13:36:01.319Z,2.50
2022-08-24T13:40:19.033Z,2.47
2022-08-24T13:44:48.084Z,2.80
2022-08-24T13:49:23.313Z,2.08
2022-08-24T13:53:34.356Z,2.20
2022-08-24T13:57:45.474Z,1.70
2022-08-24T14:01:59.521Z,1.80
2022-08-24T14:06:21.544Z,2.40
2022-08-24T14:10:32.913Z,1.73
2022-08-24T14:14:59.350Z,2.55
2022-08-24T14:19:19.503Z,1.80
2022-08-24T14:23:34.883Z,3.13
2022-08-24T14:28:03.954Z,2.08
2022-08-24T14:32:12.324Z,1.70
2022-08-24T14:36:17.887Z,1.80
2022-08-24T14:40:37.366Z,3.53
2022-08-24T14:44:56.811Z,3.75
2022-08-24T14:49:02.651Z,2.00
2022-08-24T14:53:16.640Z,2.33
2022-08-24T14:57:25.744Z,1.98
2022-08-24T15:01:53.719Z,2.50
2022-08-24T15:06:28.546Z,6.63
2022-08-24T15:10:59.609Z,3.97
2022-08-24T15:15:31.183Z,3.42
2022-08-24T15:20:07.081Z,3.88
2022-08-24T15:24:22.329Z,2.35
2022-08-24T15:28:28.363Z,2.95
2022-08-24T15:33:11.481Z,3.65
2022-08-24T15:37:16.459Z,2.08
2022-08-24T15:41:35.521Z,4.82
2022-08-24T15:45:43.290Z,6.00
2022-08-24T15:50:02.181Z,2.20
2022-08-24T15:54:30.036Z,3.72
2022-08-24T15:58:39.440Z,2.70
2022-08-24T16:02:41.912Z,2.40
2022-08-24T16:06:46.706Z,3.40
2022-08-24T16:10:57.290Z,1.98
2022-08-24T16:15:15.698Z,2.28
2022-08-24T16:19:27.886Z,2.97
2022-08-24T16:23:31.594Z,2.17
2022-08-24T16:28:12.777Z,2.33
2022-08-24T16:32:22.915Z,2.47
2022-08-24T16:36:32.142Z,2.38
2022-08-24T16:40:35.221Z,3.38
2022-08-24T16:44:40.242Z,1.70
2022-08-24T16:48:41.966Z,2.78
2022-08-24T16:52:43.761Z,2.30
2022-08-24T16:56:46.295Z,2.17
2022-08-24T17:00:49.515Z,2.40
2022-08-24T17:04:51.750Z,1.80
2022-08-24T17:08:53.620Z,2.78
2022-08-24T17:12:55.393Z,3.00
2022-08-24T17:16:58.717Z,1.75
2022-08-24T17:21:01.336Z,1.65
2022-08-24T17:25:03.883Z,1.80
2022-08-24T17:29:09.394Z,3.70
2022-08-24T17:33:12.776Z,2.58
2022-08-24T17:37:14.970Z,3.92
2022-08-24T17:41:18.591Z,4.57
2022-08-24T17:45:22.729Z,3.75
2022-08-24T17:49:26.006Z,3.75
2022-08-24T17:53:27.821Z,2.00
2022-08-24T17:57:29.556Z,4.22
2022-08-24T18:01:32.128Z,2.17
2022-08-24T18:05:34.375Z,3.80
2022-08-24T18:09:40.561Z,3.53
2022-08-24T18:13:42.705Z,4.13
2022-08-24T18:17:48.106Z,3.38
2022-08-24T18:21:49.809Z,6.30
2022-08-24T18:25:51.790Z,5.28
2022-08-24T18:29:57.447Z,13.65
2022-08-24T18:33:59.339Z,26.48
2022-08-24T18:38:01.351Z,15.80
2022-08-24T18:42:06.170Z,17.25
2022-08-24T18:46:08.916Z,11.30
2022-08-24T18:50:12.034Z,6.18
2022-08-24T18:54:24.598Z,13.10
2022-08-24T18:58:26.384Z,9.52
2022-08-24T19:02:30.575Z,5.80
2022-08-24T19:06:32.431Z,4.85
2022-08-24T19:10:36.669Z,3.42
2022-08-24T19:14:38.566Z,2.95
2022-08-24T19:18:40.341Z,3.70
2022-08-24T19:22:42.596Z,3.00
2022-08-24T19:26:44.434Z,2.78
2022-08-24T19:30:46.848Z,4.85
2022-08-24T19:34:48.925Z,3.33
2022-08-24T19:38:50.665Z,4.70
2022-08-24T19:42:55.512Z,3.72
2022-08-24T19:46:57.844Z,2.67
2022-08-24T19:51:02.813Z,3.80
2022-08-24T19:55:07.213Z,2.90
2022-08-24T19:59:20.959Z,3.75
2022-08-24T20:03:23.069Z,7.53
2022-08-24T20:07:24.968Z,4.72
2022-08-24T20:11:27.328Z,4.88
2022-08-24T20:15:29.280Z,3.00
2022-08-24T20:19:37.784Z,5.03
2022-08-24T20:23:40.076Z,4.43
2022-08-24T20:27:45.414Z,4.68
2022-08-24T20:31:50.715Z,5.05
2022-08-24T20:35:56.264Z,4.05
2022-08-24T20:39:59.201Z,3.38
2022-08-24T20:44:01.663Z,6.05
2022-08-24T20:48:04.913Z,4.22
2022-08-24T20:52:08.162Z,6.95
2022-08-24T20:56:21.021Z,4.18
2022-08-24T21:00:31.842Z,5.40
2022-08-24T21:04:33.620Z,7.43
2022-08-24T21:08:38.686Z,3.35
2022-08-24T21:12:40.398Z,5.07
2022-08-24T21:16:46.265Z,3.30
2022-08-24T21:21:03.156Z,2.92
2022-08-24T21:25:09.305Z,4.25
2022-08-24T21:29:11.479Z,3.67
2022-08-24T21:33:31.701Z,8.45
2022-08-24T21:37:33.408Z,4.82
2022-08-24T21:41:35.202Z,6.03
2022-08-24T21:45:37.001Z,3.65
2022-08-24T21:49:41.122Z,3.13
2022-08-24T21:53:42.803Z,3.22
2022-08-24T21:57:44.555Z,4.57
2022-08-24T22:01:46.393Z,6.32
2022-08-24T22:05:48.229Z,3.78
2022-08-24T22:09:49.898Z,4.85
2022-08-24T22:13:53.309Z,5.15
2022-08-24T22:17:55.276Z,7.10
2022-08-24T22:21:57.061Z,3.78
2022-08-24T22:25:58.797Z,4.47
2022-08-24T22:30:00.522Z,5.90
2022-08-24T22:34:08.696Z,6.25
2022-08-24T22:38:10.647Z,4.25
2022-08-24T22:42:12.402Z,4.00
2022-08-24T22:46:14.532Z,5.28
2022-08-24T22:50:16.657Z,4.45
2022-08-24T22:54:19.545Z,4.97
2022-08-24T22:58:21.260Z,4.57
2022-08-24T23:02:23.725Z,6.88
2022-08-24T23:06:26.750Z,6.47
2022-08-24T23:10:28.515Z,6.40
2022-08-24T23:14:30.440Z,7.25
2022-08-24T23:18:51.672Z,4.20
2022-08-24T23:22:53.382Z,4.50
2022-08-24T23:26:55.201Z,5.05
2022-08-24T23:30:57.136Z,4.68
2022-08-24T23:34:58.990Z,4.75
2022-08-24T23:39:01.517Z,6.38
2022-08-24T23:43:03.246Z,4.72
2022-08-24T23:47:05.277Z,4.57
2022-08-24T23:51:11.825Z,5.25
2022-08-24T23:55:21.131Z,4.68
2022-08-24T23:59:27.968Z,5.35
